Hlavní strana
METAR-TAF:

METAR-TAF

Letiště :

Bolzano, Itálie

zeměpisná šířka: 46-28N, zeměpisná délka: 011-20E, výška: 262 m

Aktuální stav počasí

Zpráva byla vytvořena před 23 minutami, v 06:50 UTC
vítr z různých směrů 2 kt
Teplota 22°C
Vlhkost vzduchu 60%
Tlak 1017 hPa
Viditelnost 10 km a více
Žádná oblačnost pod 1500 m, nevyskytují se cumulonimby.

METAR: LIPB 190650Z VRB02KT CAVOK 22/14 Q1017

Čas: 09:13 (07:13 UTC)

Předpověď počasí

Zpráva byla vytvořena před 2 hodinami a 13 minutami, v 05:00 UTC
Předpověď platná od 19 v 06 UTC do 20 v 06 UTC
vítr z různých směrů 5 kt
Viditelnost 10 km a více
Skoro jasno ve výšce 7000 ft

TAF: LIPB 190500Z 1906/2006 VRB05KT 9999 FEW070

Stav a předpovědi počasí z více než 4 000 letišť (zprávy METAR a TAF).

Červené a žluté tečky na mapě představují dostupné meteorologické stanice.

Když kurzor umístíte na tečku, zobrazí se název stanice.

Pak kliknutím zobrazíte stav a předpověď počasí.

Chcete-li změnit mapu, kliknutím na zelené tlačítko se znaménkem +mapu přiblížíte, kliknutím na zelené tlačítko se znaménkem – mapu oddálíte a kliknutím na zelené šipky přejdete na sousední mapy.


METAR-TAF: